LFSN METAR and TAF | Updated Today

LFSN METAR

Nancy-Essey Airport

Observation time: 2 min. ago

LFSN 060830Z AUTO 15002KT 5000 BR FEW003 OVC011 02/02 Q1015

Need help? Read our tutorial on how to read METARs or read the parsed version below.

Nancy-Essey Airport (LFSN) METAR

  • Weather conditions on Mon, 06 Dec 2021 08:30:00 +0000 (2 min. ago):
  • Present conditions: Mist
  • Clouds: A few at 91 meters; overcast sky at 335 meters
  • Visibility: 5000 meters
  • Wind: 150 degrees at 2 knots
  • Temperature: 2 celsius
  • Dew point: 2 celsius
  • Pressure: 1015 millibars
  • Remarks: None


Useful to know...

  • Codes: LFSN/ENC
  • Airport elevation: 751ft
  • Municipality: Nancy/Essey
  • Country: France
  • Continent: Europe

LFSN TAF

Nancy-Essey Airport

TAF not found.